sensor_id;sensor_type;location;lat;lon;timestamp;P1;durP1;ratioP1;P2;durP2;ratioP2
4268;SDS011;2148;48.554;7.834;2022-12-18T00:01:31;51.67;;;28.30;;
4268;SDS011;2148;48.554;7.834;2022-12-18T00:03:58;49.53;;;26.17;;
4268;SDS011;2148;48.554;7.834;2022-12-18T00:06:24;48.57;;;25.83;;
4268;SDS011;2148;48.554;7.834;2022-12-18T00:08:51;46.87;;;27.07;;
4268;SDS011;2148;48.554;7.834;2022-12-18T00:11:17;51.53;;;26.63;;
4268;SDS011;2148;48.554;7.834;2022-12-18T00:13:44;46.33;;;24.67;;
4268;SDS011;2148;48.554;7.834;2022-12-18T00:16:11;48.03;;;25.67;;
4268;SDS011;2148;48.554;7.834;2022-12-18T00:18:40;46.23;;;24.47;;
4268;SDS011;2148;48.554;7.834;2022-12-18T00:21:07;49.13;;;28.27;;
4268;SDS011;2148;48.554;7.834;2022-12-18T00:23:34;49.73;;;27.20;;
4268;SDS011;2148;48.554;7.834;2022-12-18T00:26:03;43.60;;;24.10;;
4268;SDS011;2148;48.554;7.834;2022-12-18T00:28:30;45.50;;;25.63;;
4268;SDS011;2148;48.554;7.834;2022-12-18T00:31:02;49.23;;;27.07;;
4268;SDS011;2148;48.554;7.834;2022-12-18T00:33:29;50.33;;;27.33;;
4268;SDS011;2148;48.554;7.834;2022-12-18T00:35:54;47.73;;;26.83;;
4268;SDS011;2148;48.554;7.834;2022-12-18T00:38:19;44.07;;;25.93;;
4268;SDS011;2148;48.554;7.834;2022-12-18T00:40:45;46.47;;;25.20;;
4268;SDS011;2148;48.554;7.834;2022-12-18T00:43:10;41.60;;;25.10;;
4268;SDS011;2148;48.554;7.834;2022-12-18T00:45:35;45.33;;;25.50;;
4268;SDS011;2148;48.554;7.834;2022-12-18T00:48:01;42.40;;;25.37;;
4268;SDS011;2148;48.554;7.834;2022-12-18T00:50:27;44.97;;;25.67;;
4268;SDS011;2148;48.554;7.834;2022-12-18T00:52:52;44.13;;;26.23;;
4268;SDS011;2148;48.554;7.834;2022-12-18T00:55:17;43.43;;;25.90;;
4268;SDS011;2148;48.554;7.834;2022-12-18T00:57:43;42.57;;;24.37;;
4268;SDS011;2148;48.554;7.834;2022-12-18T01:00:10;43.83;;;24.43;;
4268;SDS011;2148;48.554;7.834;2022-12-18T01:02:37;38.97;;;24.37;;
4268;SDS011;2148;48.554;7.834;2022-12-18T01:05:03;39.07;;;23.57;;
4268;SDS011;2148;48.554;7.834;2022-12-18T01:07:29;47.60;;;22.70;;
4268;SDS011;2148;48.554;7.834;2022-12-18T01:09:54;47.40;;;24.40;;
4268;SDS011;2148;48.554;7.834;2022-12-18T01:12:19;41.17;;;25.03;;
4268;SDS011;2148;48.554;7.834;2022-12-18T01:14:45;43.80;;;24.67;;
4268;SDS011;2148;48.554;7.834;2022-12-18T01:17:10;42.43;;;24.63;;
4268;SDS011;2148;48.554;7.834;2022-12-18T01:19:35;39.87;;;22.77;;
4268;SDS011;2148;48.554;7.834;2022-12-18T01:22:00;43.73;;;24.67;;
4268;SDS011;2148;48.554;7.834;2022-12-18T01:24:26;39.07;;;22.80;;
4268;SDS011;2148;48.554;7.834;2022-12-18T01:26:51;49.97;;;25.83;;
4268;SDS011;2148;48.554;7.834;2022-12-18T01:29:16;47.67;;;24.77;;
4268;SDS011;2148;48.554;7.834;2022-12-18T01:31:42;44.87;;;23.23;;
4268;SDS011;2148;48.554;7.834;2022-12-18T01:34:08;37.10;;;22.60;;
4268;SDS011;2148;48.554;7.834;2022-12-18T01:36:35;44.03;;;23.03;;
4268;SDS011;2148;48.554;7.834;2022-12-18T01:39:03;39.83;;;20.20;;
4268;SDS011;2148;48.554;7.834;2022-12-18T01:41:30;32.87;;;17.00;;
4268;SDS011;2148;48.554;7.834;2022-12-18T01:47:24;34.20;;;19.13;;
4268;SDS011;2148;48.554;7.834;2022-12-18T01:50:15;33.53;;;17.93;;
4268;SDS011;2148;48.554;7.834;2022-12-18T01:52:45;36.90;;;20.00;;
4268;SDS011;2148;48.554;7.834;2022-12-18T01:55:12;36.87;;;21.67;;
4268;SDS011;2148;48.554;7.834;2022-12-18T01:57:39;45.03;;;23.83;;
4268;SDS011;2148;48.554;7.834;2022-12-18T02:00:07;41.63;;;22.77;;
4268;SDS011;2148;48.554;7.834;2022-12-18T02:02:35;42.20;;;22.57;;
4268;SDS011;2148;48.554;7.834;2022-12-18T02:05:00;45.70;;;24.30;;
4268;SDS011;2148;48.554;7.834;2022-12-18T02:10:17;45.37;;;24.77;;
4268;SDS011;2148;48.554;7.834;2022-12-18T02:12:53;44.60;;;23.13;;
4268;SDS011;2148;48.554;7.834;2022-12-18T02:18:37;44.23;;;24.73;;
4268;SDS011;2148;48.554;7.834;2022-12-18T02:21:12;43.03;;;23.73;;
4268;SDS011;2148;48.554;7.834;2022-12-18T02:23:52;40.43;;;22.73;;
4268;SDS011;2148;48.554;7.834;2022-12-18T02:26:25;43.97;;;23.33;;
4268;SDS011;2148;48.554;7.834;2022-12-18T02:29:03;40.17;;;23.13;;
4268;SDS011;2148;48.554;7.834;2022-12-18T02:31:35;44.10;;;24.60;;
4268;SDS011;2148;48.554;7.834;2022-12-18T02:34:03;46.60;;;24.47;;
4268;SDS011;2148;48.554;7.834;2022-12-18T02:36:29;43.33;;;25.07;;
4268;SDS011;2148;48.554;7.834;2022-12-18T02:38:56;44.43;;;25.23;;
4268;SDS011;2148;48.554;7.834;2022-12-18T02:41:22;39.83;;;23.67;;
4268;SDS011;2148;48.554;7.834;2022-12-18T02:43:48;42.60;;;22.53;;
4268;SDS011;2148;48.554;7.834;2022-12-18T02:46:29;47.40;;;24.87;;
4268;SDS011;2148;48.554;7.834;2022-12-18T02:49:00;43.40;;;25.93;;
4268;SDS011;2148;48.554;7.834;2022-12-18T02:57:14;41.23;;;22.67;;
4268;SDS011;2148;48.554;7.834;2022-12-18T02:59:49;40.93;;;21.77;;
4268;SDS011;2148;48.554;7.834;2022-12-18T03:02:22;36.47;;;19.70;;
4268;SDS011;2148;48.554;7.834;2022-12-18T03:04:56;41.47;;;23.47;;
4268;SDS011;2148;48.554;7.834;2022-12-18T03:08:08;42.17;;;22.80;;
4268;SDS011;2148;48.554;7.834;2022-12-18T03:10:18;42.07;;;22.23;;
4268;SDS011;2148;48.554;7.834;2022-12-18T03:12:52;44.10;;;23.53;;
4268;SDS011;2148;48.554;7.834;2022-12-18T03:15:30;44.53;;;24.43;;
4268;SDS011;2148;48.554;7.834;2022-12-18T03:18:08;44.87;;;24.30;;
4268;SDS011;2148;48.554;7.834;2022-12-18T03:20:37;47.47;;;21.97;;
4268;SDS011;2148;48.554;7.834;2022-12-18T03:23:09;41.90;;;21.50;;
4268;SDS011;2148;48.554;7.834;2022-12-18T03:25:37;40.97;;;22.83;;
4268;SDS011;2148;48.554;7.834;2022-12-18T03:28:05;46.70;;;23.93;;
4268;SDS011;2148;48.554;7.834;2022-12-18T03:30:31;45.30;;;24.40;;
4268;SDS011;2148;48.554;7.834;2022-12-18T03:35:44;40.40;;;23.07;;
4268;SDS011;2148;48.554;7.834;2022-12-18T03:38:10;40.37;;;22.17;;
4268;SDS011;2148;48.554;7.834;2022-12-18T03:40:44;47.40;;;23.10;;
4268;SDS011;2148;48.554;7.834;2022-12-18T03:43:16;40.13;;;20.67;;
4268;SDS011;2148;48.554;7.834;2022-12-18T03:45:58;38.60;;;22.00;;
4268;SDS011;2148;48.554;7.834;2022-12-18T03:48:32;40.93;;;22.03;;
4268;SDS011;2148;48.554;7.834;2022-12-18T03:51:06;42.17;;;24.03;;
4268;SDS011;2148;48.554;7.834;2022-12-18T03:54:02;42.83;;;23.00;;
4268;SDS011;2148;48.554;7.834;2022-12-18T03:56:29;46.07;;;25.53;;
4268;SDS011;2148;48.554;7.834;2022-12-18T03:58:57;41.27;;;22.90;;
4268;SDS011;2148;48.554;7.834;2022-12-18T04:01:25;47.20;;;24.87;;
4268;SDS011;2148;48.554;7.834;2022-12-18T04:03:54;41.47;;;22.57;;
4268;SDS011;2148;48.554;7.834;2022-12-18T04:06:20;43.40;;;22.30;;
4268;SDS011;2148;48.554;7.834;2022-12-18T04:08:46;44.17;;;21.50;;
4268;SDS011;2148;48.554;7.834;2022-12-18T04:11:12;46.17;;;22.53;;
4268;SDS011;2148;48.554;7.834;2022-12-18T04:13:37;43.83;;;23.63;;
4268;SDS011;2148;48.554;7.834;2022-12-18T04:16:03;42.90;;;22.63;;
4268;SDS011;2148;48.554;7.834;2022-12-18T04:18:28;35.10;;;21.23;;
4268;SDS011;2148;48.554;7.834;2022-12-18T04:20:54;35.47;;;20.63;;
4268;SDS011;2148;48.554;7.834;2022-12-18T04:23:19;35.77;;;18.63;;
4268;SDS011;2148;48.554;7.834;2022-12-18T04:25:45;33.77;;;18.60;;
4268;SDS011;2148;48.554;7.834;2022-12-18T04:28:11;31.50;;;17.20;;
4268;SDS011;2148;48.554;7.834;2022-12-18T04:30:37;33.40;;;17.67;;
4268;SDS011;2148;48.554;7.834;2022-12-18T04:33:02;37.37;;;18.30;;
4268;SDS011;2148;48.554;7.834;2022-12-18T04:35:27;37.83;;;21.27;;
4268;SDS011;2148;48.554;7.834;2022-12-18T04:37:53;38.10;;;20.80;;
4268;SDS011;2148;48.554;7.834;2022-12-18T04:40:18;41.33;;;21.63;;
4268;SDS011;2148;48.554;7.834;2022-12-18T04:42:43;37.90;;;18.40;;
4268;SDS011;2148;48.554;7.834;2022-12-18T04:45:08;39.77;;;20.23;;
4268;SDS011;2148;48.554;7.834;2022-12-18T04:47:34;38.73;;;19.80;;
4268;SDS011;2148;48.554;7.834;2022-12-18T04:49:59;43.70;;;21.90;;
4268;SDS011;2148;48.554;7.834;2022-12-18T04:52:24;34.77;;;16.97;;
4268;SDS011;2148;48.554;7.834;2022-12-18T04:54:50;36.60;;;18.70;;
4268;SDS011;2148;48.554;7.834;2022-12-18T04:57:15;39.57;;;20.00;;
4268;SDS011;2148;48.554;7.834;2022-12-18T04:59:40;41.03;;;19.97;;
4268;SDS011;2148;48.554;7.834;2022-12-18T05:02:05;34.97;;;17.40;;
4268;SDS011;2148;48.554;7.834;2022-12-18T05:04:31;34.13;;;17.73;;
4268;SDS011;2148;48.554;7.834;2022-12-18T05:06:56;34.07;;;16.30;;
4268;SDS011;2148;48.554;7.834;2022-12-18T05:09:22;40.87;;;19.73;;
4268;SDS011;2148;48.554;7.834;2022-12-18T05:11:48;22.77;;;13.83;;
4268;SDS011;2148;48.554;7.834;2022-12-18T05:14:13;17.20;;;8.27;;
4268;SDS011;2148;48.554;7.834;2022-12-18T05:16:38;37.57;;;19.27;;
4268;SDS011;2148;48.554;7.834;2022-12-18T05:19:03;31.43;;;15.97;;
4268;SDS011;2148;48.554;7.834;2022-12-18T05:21:29;34.97;;;17.17;;
4268;SDS011;2148;48.554;7.834;2022-12-18T05:23:54;36.87;;;20.07;;
4268;SDS011;2148;48.554;7.834;2022-12-18T05:26:19;38.97;;;19.97;;
4268;SDS011;2148;48.554;7.834;2022-12-18T05:28:45;36.53;;;17.70;;
4268;SDS011;2148;48.554;7.834;2022-12-18T05:31:10;36.40;;;19.97;;
4268;SDS011;2148;48.554;7.834;2022-12-18T05:33:36;36.23;;;16.60;;
4268;SDS011;2148;48.554;7.834;2022-12-18T05:36:03;35.97;;;18.97;;
4268;SDS011;2148;48.554;7.834;2022-12-18T05:38:30;32.73;;;18.17;;
4268;SDS011;2148;48.554;7.834;2022-12-18T05:40:57;31.20;;;16.93;;
4268;SDS011;2148;48.554;7.834;2022-12-18T05:43:23;31.60;;;17.60;;
4268;SDS011;2148;48.554;7.834;2022-12-18T05:45:49;34.67;;;18.63;;
4268;SDS011;2148;48.554;7.834;2022-12-18T05:48:15;33.87;;;17.10;;
4268;SDS011;2148;48.554;7.834;2022-12-18T05:50:41;32.10;;;16.03;;
4268;SDS011;2148;48.554;7.834;2022-12-18T05:53:08;37.40;;;18.37;;
4268;SDS011;2148;48.554;7.834;2022-12-18T05:55:37;30.97;;;18.27;;
4268;SDS011;2148;48.554;7.834;2022-12-18T05:58:04;35.87;;;19.27;;
4268;SDS011;2148;48.554;7.834;2022-12-18T06:00:31;35.43;;;19.97;;
4268;SDS011;2148;48.554;7.834;2022-12-18T06:02:57;31.47;;;16.73;;
4268;SDS011;2148;48.554;7.834;2022-12-18T06:05:22;31.60;;;16.93;;
4268;SDS011;2148;48.554;7.834;2022-12-18T06:07:48;33.17;;;17.33;;
4268;SDS011;2148;48.554;7.834;2022-12-18T06:10:13;28.17;;;14.90;;
4268;SDS011;2148;48.554;7.834;2022-12-18T06:12:38;31.50;;;15.27;;
4268;SDS011;2148;48.554;7.834;2022-12-18T06:15:04;27.43;;;15.93;;
4268;SDS011;2148;48.554;7.834;2022-12-18T06:17:33;34.23;;;15.37;;
4268;SDS011;2148;48.554;7.834;2022-12-18T06:19:58;33.17;;;14.93;;
4268;SDS011;2148;48.554;7.834;2022-12-18T06:22:24;32.27;;;17.73;;
4268;SDS011;2148;48.554;7.834;2022-12-18T06:24:49;32.20;;;17.77;;
4268;SDS011;2148;48.554;7.834;2022-12-18T06:27:15;35.50;;;17.27;;
4268;SDS011;2148;48.554;7.834;2022-12-18T06:29:40;32.90;;;17.10;;
4268;SDS011;2148;48.554;7.834;2022-12-18T06:32:06;28.03;;;14.53;;
4268;SDS011;2148;48.554;7.834;2022-12-18T06:34:31;34.30;;;17.93;;
4268;SDS011;2148;48.554;7.834;2022-12-18T06:36:57;28.97;;;14.47;;
4268;SDS011;2148;48.554;7.834;2022-12-18T06:39:23;25.50;;;14.13;;
4268;SDS011;2148;48.554;7.834;2022-12-18T06:41:48;32.03;;;15.47;;
4268;SDS011;2148;48.554;7.834;2022-12-18T06:44:13;27.97;;;15.57;;
4268;SDS011;2148;48.554;7.834;2022-12-18T06:46:38;31.67;;;15.97;;
4268;SDS011;2148;48.554;7.834;2022-12-18T06:49:04;28.73;;;16.57;;
4268;SDS011;2148;48.554;7.834;2022-12-18T06:51:29;31.27;;;13.90;;
4268;SDS011;2148;48.554;7.834;2022-12-18T06:53:54;30.20;;;17.93;;
4268;SDS011;2148;48.554;7.834;2022-12-18T06:56:19;27.40;;;15.00;;
4268;SDS011;2148;48.554;7.834;2022-12-18T06:58:45;27.53;;;15.03;;
4268;SDS011;2148;48.554;7.834;2022-12-18T07:01:10;33.70;;;16.90;;
4268;SDS011;2148;48.554;7.834;2022-12-18T07:03:37;28.70;;;16.53;;
4268;SDS011;2148;48.554;7.834;2022-12-18T07:06:03;29.57;;;16.30;;
4268;SDS011;2148;48.554;7.834;2022-12-18T07:08:29;20.70;;;13.33;;
4268;SDS011;2148;48.554;7.834;2022-12-18T07:10:55;24.93;;;14.07;;
4268;SDS011;2148;48.554;7.834;2022-12-18T07:13:20;23.87;;;13.17;;
4268;SDS011;2148;48.554;7.834;2022-12-18T07:15:45;26.83;;;15.47;;
4268;SDS011;2148;48.554;7.834;2022-12-18T07:18:10;21.83;;;12.17;;
4268;SDS011;2148;48.554;7.834;2022-12-18T07:20:36;27.70;;;15.67;;
4268;SDS011;2148;48.554;7.834;2022-12-18T07:23:02;31.07;;;16.53;;
4268;SDS011;2148;48.554;7.834;2022-12-18T07:25:28;29.80;;;15.33;;
4268;SDS011;2148;48.554;7.834;2022-12-18T07:27:53;24.83;;;14.67;;
4268;SDS011;2148;48.554;7.834;2022-12-18T07:30:19;23.50;;;15.33;;
4268;SDS011;2148;48.554;7.834;2022-12-18T07:32:44;27.07;;;14.80;;
4268;SDS011;2148;48.554;7.834;2022-12-18T07:35:09;18.03;;;10.13;;
4268;SDS011;2148;48.554;7.834;2022-12-18T07:37:34;28.07;;;15.87;;
4268;SDS011;2148;48.554;7.834;2022-12-18T07:40:00;21.53;;;10.77;;
4268;SDS011;2148;48.554;7.834;2022-12-18T07:42:25;27.73;;;15.90;;
4268;SDS011;2148;48.554;7.834;2022-12-18T07:44:56;29.73;;;16.77;;
4268;SDS011;2148;48.554;7.834;2022-12-18T07:47:22;26.33;;;14.47;;
4268;SDS011;2148;48.554;7.834;2022-12-18T07:49:47;40.27;;;22.23;;
4268;SDS011;2148;48.554;7.834;2022-12-18T07:52:13;40.97;;;22.50;;
4268;SDS011;2148;48.554;7.834;2022-12-18T07:54:38;22.47;;;13.47;;
4268;SDS011;2148;48.554;7.834;2022-12-18T07:57:05;31.40;;;16.97;;
4268;SDS011;2148;48.554;7.834;2022-12-18T07:59:30;26.07;;;15.47;;
4268;SDS011;2148;48.554;7.834;2022-12-18T08:01:55;38.50;;;19.53;;
4268;SDS011;2148;48.554;7.834;2022-12-18T08:04:21;31.47;;;16.73;;
4268;SDS011;2148;48.554;7.834;2022-12-18T08:06:46;29.53;;;15.90;;
4268;SDS011;2148;48.554;7.834;2022-12-18T08:09:11;30.87;;;16.17;;
4268;SDS011;2148;48.554;7.834;2022-12-18T08:11:37;30.93;;;16.27;;
4268;SDS011;2148;48.554;7.834;2022-12-18T08:14:02;32.47;;;17.13;;
4268;SDS011;2148;48.554;7.834;2022-12-18T08:16:27;25.93;;;16.27;;
4268;SDS011;2148;48.554;7.834;2022-12-18T08:18:53;23.37;;;13.97;;
4268;SDS011;2148;48.554;7.834;2022-12-18T08:21:20;26.77;;;16.50;;
4268;SDS011;2148;48.554;7.834;2022-12-18T08:23:48;26.30;;;14.50;;
4268;SDS011;2148;48.554;7.834;2022-12-18T08:26:14;27.33;;;16.53;;
4268;SDS011;2148;48.554;7.834;2022-12-18T08:28:40;29.10;;;15.80;;
4268;SDS011;2148;48.554;7.834;2022-12-18T08:31:05;23.87;;;13.30;;
4268;SDS011;2148;48.554;7.834;2022-12-18T08:33:31;27.23;;;15.57;;
4268;SDS011;2148;48.554;7.834;2022-12-18T08:36:00;24.13;;;15.30;;
4268;SDS011;2148;48.554;7.834;2022-12-18T08:38:26;26.33;;;15.07;;
4268;SDS011;2148;48.554;7.834;2022-12-18T08:41:05;26.57;;;15.80;;
4268;SDS011;2148;48.554;7.834;2022-12-18T08:43:31;30.47;;;17.33;;
4268;SDS011;2148;48.554;7.834;2022-12-18T08:46:16;7.07;;;5.47;;
4268;SDS011;2148;48.554;7.834;2022-12-18T08:48:42;8.30;;;6.70;;
4268;SDS011;2148;48.554;7.834;2022-12-18T08:51:07;16.00;;;10.50;;
4268;SDS011;2148;48.554;7.834;2022-12-18T08:53:34;30.90;;;15.60;;
4268;SDS011;2148;48.554;7.834;2022-12-18T08:56:00;21.13;;;12.63;;
4268;SDS011;2148;48.554;7.834;2022-12-18T08:58:25;25.50;;;15.23;;
4268;SDS011;2148;48.554;7.834;2022-12-18T09:00:50;22.70;;;13.97;;
4268;SDS011;2148;48.554;7.834;2022-12-18T09:03:16;23.00;;;12.87;;
4268;SDS011;2148;48.554;7.834;2022-12-18T09:05:42;23.67;;;12.77;;
4268;SDS011;2148;48.554;7.834;2022-12-18T09:08:08;24.50;;;13.17;;
4268;SDS011;2148;48.554;7.834;2022-12-18T09:10:34;24.00;;;12.87;;
4268;SDS011;2148;48.554;7.834;2022-12-18T09:12:59;29.30;;;16.67;;
4268;SDS011;2148;48.554;7.834;2022-12-18T09:15:24;7.17;;;5.37;;
4268;SDS011;2148;48.554;7.834;2022-12-18T09:17:50;22.40;;;14.37;;
4268;SDS011;2148;48.554;7.834;2022-12-18T09:20:17;28.43;;;16.03;;
4268;SDS011;2148;48.554;7.834;2022-12-18T09:22:43;25.33;;;14.63;;
4268;SDS011;2148;48.554;7.834;2022-12-18T09:25:08;28.50;;;15.50;;
4268;SDS011;2148;48.554;7.834;2022-12-18T09:27:34;19.10;;;12.97;;
4268;SDS011;2148;48.554;7.834;2022-12-18T09:29:59;31.53;;;15.60;;
4268;SDS011;2148;48.554;7.834;2022-12-18T09:32:25;25.77;;;15.60;;
4268;SDS011;2148;48.554;7.834;2022-12-18T09:34:50;26.43;;;15.37;;
4268;SDS011;2148;48.554;7.834;2022-12-18T09:37:17;23.27;;;13.80;;
4268;SDS011;2148;48.554;7.834;2022-12-18T09:39:42;24.80;;;14.50;;
4268;SDS011;2148;48.554;7.834;2022-12-18T09:42:09;21.30;;;11.47;;
4268;SDS011;2148;48.554;7.834;2022-12-18T09:44:49;24.37;;;15.47;;
4268;SDS011;2148;48.554;7.834;2022-12-18T09:47:19;15.00;;;7.50;;
4268;SDS011;2148;48.554;7.834;2022-12-18T09:49:49;23.67;;;14.37;;
4268;SDS011;2148;48.554;7.834;2022-12-18T09:52:19;23.03;;;13.83;;
4268;SDS011;2148;48.554;7.834;2022-12-18T09:54:48;23.23;;;11.83;;
4268;SDS011;2148;48.554;7.834;2022-12-18T09:57:22;18.77;;;11.60;;
4268;SDS011;2148;48.554;7.834;2022-12-18T10:02:50;8.80;;;6.40;;
4268;SDS011;2148;48.554;7.834;2022-12-18T10:05:17;30.57;;;18.00;;
4268;SDS011;2148;48.554;7.834;2022-12-18T10:21:11;27.30;;;15.60;;
4268;SDS011;2148;48.554;7.834;2022-12-18T10:26:34;34.33;;;14.87;;
4268;SDS011;2148;48.554;7.834;2022-12-18T10:28:59;31.00;;;17.73;;
4268;SDS011;2148;48.554;7.834;2022-12-18T10:31:25;31.43;;;18.93;;
4268;SDS011;2148;48.554;7.834;2022-12-18T10:33:50;27.23;;;14.13;;
4268;SDS011;2148;48.554;7.834;2022-12-18T10:36:16;32.20;;;19.27;;
4268;SDS011;2148;48.554;7.834;2022-12-18T10:38:41;28.87;;;17.40;;
4268;SDS011;2148;48.554;7.834;2022-12-18T10:43:46;13.03;;;8.90;;
4268;SDS011;2148;48.554;7.834;2022-12-18T10:46:14;32.50;;;18.37;;
4268;SDS011;2148;48.554;7.834;2022-12-18T10:53:51;41.97;;;20.83;;
4268;SDS011;2148;48.554;7.834;2022-12-18T10:56:19;43.70;;;22.53;;
4268;SDS011;2148;48.554;7.834;2022-12-18T10:58:46;42.97;;;26.60;;
4268;SDS011;2148;48.554;7.834;2022-12-18T11:01:24;31.57;;;17.43;;
4268;SDS011;2148;48.554;7.834;2022-12-18T11:06:19;40.60;;;21.07;;
4268;SDS011;2148;48.554;7.834;2022-12-18T11:11:29;47.97;;;24.40;;
4268;SDS011;2148;48.554;7.834;2022-12-18T11:16:27;32.30;;;16.20;;
4268;SDS011;2148;48.554;7.834;2022-12-18T11:18:55;43.50;;;24.17;;
4268;SDS011;2148;48.554;7.834;2022-12-18T11:21:42;44.70;;;23.10;;
4268;SDS011;2148;48.554;7.834;2022-12-18T11:24:15;41.73;;;22.50;;
4268;SDS011;2148;48.554;7.834;2022-12-18T11:27:00;46.57;;;24.00;;
4268;SDS011;2148;48.554;7.834;2022-12-18T11:29:32;35.63;;;19.87;;
4268;SDS011;2148;48.554;7.834;2022-12-18T11:34:39;26.23;;;16.77;;
4268;SDS011;2148;48.554;7.834;2022-12-18T11:37:07;37.23;;;23.47;;
4268;SDS011;2148;48.554;7.834;2022-12-18T11:39:38;44.77;;;22.63;;
4268;SDS011;2148;48.554;7.834;2022-12-18T11:45:17;37.57;;;19.57;;
4268;SDS011;2148;48.554;7.834;2022-12-18T11:47:52;38.03;;;19.07;;
4268;SDS011;2148;48.554;7.834;2022-12-18T11:50:40;45.73;;;23.63;;
4268;SDS011;2148;48.554;7.834;2022-12-18T11:53:11;40.30;;;22.07;;
4268;SDS011;2148;48.554;7.834;2022-12-18T11:58:38;36.17;;;19.57;;
4268;SDS011;2148;48.554;7.834;2022-12-18T12:01:28;38.73;;;20.57;;
4268;SDS011;2148;48.554;7.834;2022-12-18T12:15:16;42.00;;;24.07;;
4268;SDS011;2148;48.554;7.834;2022-12-18T12:20:10;45.43;;;22.33;;
4268;SDS011;2148;48.554;7.834;2022-12-18T12:22:50;34.53;;;21.10;;
4268;SDS011;2148;48.554;7.834;2022-12-18T12:25:33;40.50;;;20.97;;
4268;SDS011;2148;48.554;7.834;2022-12-18T12:28:05;36.63;;;22.13;;
4268;SDS011;2148;48.554;7.834;2022-12-18T12:33:50;40.47;;;22.17;;
4268;SDS011;2148;48.554;7.834;2022-12-18T12:39:10;41.60;;;21.90;;
4268;SDS011;2148;48.554;7.834;2022-12-18T12:41:38;44.73;;;23.77;;
4268;SDS011;2148;48.554;7.834;2022-12-18T12:44:27;41.10;;;22.70;;
4268;SDS011;2148;48.554;7.834;2022-12-18T12:47:08;39.37;;;23.83;;
4268;SDS011;2148;48.554;7.834;2022-12-18T12:49:56;41.27;;;22.73;;
4268;SDS011;2148;48.554;7.834;2022-12-18T12:52:34;43.03;;;25.53;;
4268;SDS011;2148;48.554;7.834;2022-12-18T12:55:03;48.37;;;25.90;;
4268;SDS011;2148;48.554;7.834;2022-12-18T12:57:34;42.30;;;22.47;;
4268;SDS011;2148;48.554;7.834;2022-12-18T13:00:04;40.40;;;22.10;;
4268;SDS011;2148;48.554;7.834;2022-12-18T13:05:25;45.03;;;22.80;;
4268;SDS011;2148;48.554;7.834;2022-12-18T13:08:02;45.03;;;24.07;;
4268;SDS011;2148;48.554;7.834;2022-12-18T13:13:05;33.00;;;19.47;;
4268;SDS011;2148;48.554;7.834;2022-12-18T13:20:47;46.50;;;23.53;;
4268;SDS011;2148;48.554;7.834;2022-12-18T13:23:19;41.37;;;24.20;;
4268;SDS011;2148;48.554;7.834;2022-12-18T13:25:49;51.60;;;29.37;;
4268;SDS011;2148;48.554;7.834;2022-12-18T13:28:16;47.23;;;25.30;;
4268;SDS011;2148;48.554;7.834;2022-12-18T13:30:44;43.47;;;26.63;;
4268;SDS011;2148;48.554;7.834;2022-12-18T13:35:39;50.47;;;27.47;;
4268;SDS011;2148;48.554;7.834;2022-12-18T13:38:22;46.17;;;25.90;;
4268;SDS011;2148;48.554;7.834;2022-12-18T13:43:23;47.47;;;26.40;;
4268;SDS011;2148;48.554;7.834;2022-12-18T13:48:56;52.30;;;28.47;;
4268;SDS011;2148;48.554;7.834;2022-12-18T13:51:31;46.47;;;26.57;;
4268;SDS011;2148;48.554;7.834;2022-12-18T13:56:48;47.43;;;25.80;;
4268;SDS011;2148;48.554;7.834;2022-12-18T13:59:24;47.53;;;25.77;;
4268;SDS011;2148;48.554;7.834;2022-12-18T14:01:55;43.20;;;27.27;;
4268;SDS011;2148;48.554;7.834;2022-12-18T14:04:28;48.60;;;27.23;;
4268;SDS011;2148;48.554;7.834;2022-12-18T14:06:56;47.07;;;25.33;;
4268;SDS011;2148;48.554;7.834;2022-12-18T14:09:25;54.30;;;30.93;;
4268;SDS011;2148;48.554;7.834;2022-12-18T14:11:52;55.33;;;32.07;;
4268;SDS011;2148;48.554;7.834;2022-12-18T14:14:40;48.20;;;27.37;;
4268;SDS011;2148;48.554;7.834;2022-12-18T14:17:09;45.37;;;26.73;;
4268;SDS011;2148;48.554;7.834;2022-12-18T14:19:35;43.60;;;24.63;;
4268;SDS011;2148;48.554;7.834;2022-12-18T14:22:00;47.97;;;25.40;;
4268;SDS011;2148;48.554;7.834;2022-12-18T14:24:26;42.87;;;23.97;;
4268;SDS011;2148;48.554;7.834;2022-12-18T14:26:52;39.67;;;23.27;;
4268;SDS011;2148;48.554;7.834;2022-12-18T14:32:03;44.17;;;25.37;;
4268;SDS011;2148;48.554;7.834;2022-12-18T14:34:34;43.80;;;26.23;;
4268;SDS011;2148;48.554;7.834;2022-12-18T14:37:00;44.17;;;25.37;;
4268;SDS011;2148;48.554;7.834;2022-12-18T14:39:25;46.33;;;26.23;;
4268;SDS011;2148;48.554;7.834;2022-12-18T14:41:50;46.23;;;26.30;;
4268;SDS011;2148;48.554;7.834;2022-12-18T14:44:16;47.60;;;26.33;;
4268;SDS011;2148;48.554;7.834;2022-12-18T14:46:43;44.57;;;23.50;;
4268;SDS011;2148;48.554;7.834;2022-12-18T14:52:01;53.77;;;29.03;;
4268;SDS011;2148;48.554;7.834;2022-12-18T14:54:28;44.20;;;28.13;;
4268;SDS011;2148;48.554;7.834;2022-12-18T14:59:25;44.90;;;26.10;;
4268;SDS011;2148;48.554;7.834;2022-12-18T15:02:04;55.00;;;28.13;;
4268;SDS011;2148;48.554;7.834;2022-12-18T15:04:34;50.00;;;28.63;;
4268;SDS011;2148;48.554;7.834;2022-12-18T15:09:35;50.83;;;27.97;;
4268;SDS011;2148;48.554;7.834;2022-12-18T15:12:01;48.20;;;27.47;;
4268;SDS011;2148;48.554;7.834;2022-12-18T15:14:31;45.00;;;27.17;;
4268;SDS011;2148;48.554;7.834;2022-12-18T15:17:05;47.60;;;25.20;;
4268;SDS011;2148;48.554;7.834;2022-12-18T15:19:33;50.33;;;26.97;;
4268;SDS011;2148;48.554;7.834;2022-12-18T15:22:03;52.30;;;27.80;;
4268;SDS011;2148;48.554;7.834;2022-12-18T15:24:30;52.70;;;28.57;;
4268;SDS011;2148;48.554;7.834;2022-12-18T15:26:56;47.90;;;27.37;;
4268;SDS011;2148;48.554;7.834;2022-12-18T15:29:22;53.80;;;28.33;;
4268;SDS011;2148;48.554;7.834;2022-12-18T15:32:15;50.07;;;26.87;;
4268;SDS011;2148;48.554;7.834;2022-12-18T15:34:44;55.13;;;30.10;;
4268;SDS011;2148;48.554;7.834;2022-12-18T15:37:09;53.47;;;29.40;;
4268;SDS011;2148;48.554;7.834;2022-12-18T15:39:34;53.20;;;29.57;;
4268;SDS011;2148;48.554;7.834;2022-12-18T15:42:00;46.47;;;26.83;;
4268;SDS011;2148;48.554;7.834;2022-12-18T15:44:45;44.87;;;27.50;;
4268;SDS011;2148;48.554;7.834;2022-12-18T15:47:11;51.00;;;28.37;;
4268;SDS011;2148;48.554;7.834;2022-12-18T15:49:37;53.70;;;29.53;;
4268;SDS011;2148;48.554;7.834;2022-12-18T15:52:02;52.67;;;28.70;;
4268;SDS011;2148;48.554;7.834;2022-12-18T15:54:28;48.63;;;27.17;;
4268;SDS011;2148;48.554;7.834;2022-12-18T15:57:12;53.30;;;27.67;;
4268;SDS011;2148;48.554;7.834;2022-12-18T15:59:49;51.43;;;29.20;;
4268;SDS011;2148;48.554;7.834;2022-12-18T16:02:17;49.47;;;26.87;;
4268;SDS011;2148;48.554;7.834;2022-12-18T16:04:43;50.47;;;25.90;;
4268;SDS011;2148;48.554;7.834;2022-12-18T16:07:10;50.23;;;28.00;;
4268;SDS011;2148;48.554;7.834;2022-12-18T16:09:36;49.27;;;26.43;;
4268;SDS011;2148;48.554;7.834;2022-12-18T16:12:01;57.07;;;29.33;;
4268;SDS011;2148;48.554;7.834;2022-12-18T16:14:28;49.17;;;26.77;;
4268;SDS011;2148;48.554;7.834;2022-12-18T16:16:59;44.30;;;26.70;;
4268;SDS011;2148;48.554;7.834;2022-12-18T16:19:25;48.80;;;26.57;;
4268;SDS011;2148;48.554;7.834;2022-12-18T16:21:52;49.63;;;25.90;;
4268;SDS011;2148;48.554;7.834;2022-12-18T16:24:18;56.50;;;27.73;;
4268;SDS011;2148;48.554;7.834;2022-12-18T16:26:47;52.20;;;27.27;;
4268;SDS011;2148;48.554;7.834;2022-12-18T16:29:13;47.23;;;27.13;;
4268;SDS011;2148;48.554;7.834;2022-12-18T16:31:38;45.70;;;25.87;;
4268;SDS011;2148;48.554;7.834;2022-12-18T16:36:38;47.40;;;26.27;;
4268;SDS011;2148;48.554;7.834;2022-12-18T16:39:03;57.63;;;28.27;;
4268;SDS011;2148;48.554;7.834;2022-12-18T16:41:29;52.37;;;28.60;;
4268;SDS011;2148;48.554;7.834;2022-12-18T16:43:58;52.30;;;27.23;;
4268;SDS011;2148;48.554;7.834;2022-12-18T16:46:26;53.20;;;28.90;;
4268;SDS011;2148;48.554;7.834;2022-12-18T16:48:52;52.63;;;26.97;;
4268;SDS011;2148;48.554;7.834;2022-12-18T16:51:17;50.60;;;27.87;;